Strahan, Australia
Current Conditions -  °F | °C
As of 7:00 AM on Friday 30 Jan 2015 (Local Time) from YMLT Reporting Station
Overcast Overcast  
Wind Chill: 54°   Ceiling: 3700
Heat Index: 54°   Visibility: 6mi
Dew Point: 43°   Wind: 16mph
Humidity: 67%   Direction: 150°SSE
Pressure: 30.03"   Gusts: NA
Location:  42.16°S, 145.33°E
Report Text: YMLT 292000Z AUTO 15014KT 9999 // BKN037 OVC045 12/06 Q1017
Loading
Personal Weather Stations






























Interactive Weather Map New forecast layout! Learn more

10-Day Weather Forecast

Advertisements
Track Severe Weather on mobile